Time;durP1;ratioP1;P1;durP2;ratioP2;P2;SDS_P1;SDS_P2;PMS_P1;PMS_P2;Temp;Humidity;BMP_temperature;BMP_pressure;BME280_temperature;BME280_humidity;BME280_pressure;Samples;Min_cycle;Max_cycle;Signal;HPM_P1;HPM_P2
2023/08/13 00:02:19;;;;;;;9.77;5.03;;;;;;;;;;5042219;28;20467;-80
2023/08/13 00:04:46;;;;;;;8.17;4.73;;;;;;;;;;5040412;28;20471;-80
2023/08/13 00:07:12;;;;;;;12.90;3.63;;;;;;;;;;5042267;28;20953;-80
2023/08/13 00:09:41;;;;;;;7.27;5.60;;;;;;;;;;5042737;28;20464;-80
2023/08/13 00:12:09;;;;;;;14.20;6.37;;;;;;;;;;5043342;28;20471;-80
2023/08/13 00:14:35;;;;;;;6.67;4.00;;;;;;;;;;5043340;28;20465;-80
2023/08/13 00:17:02;;;;;;;9.00;4.30;;;;;;;;;;5039138;28;20955;-80
2023/08/13 00:19:28;;;;;;;6.90;3.73;;;;;;;;;;5043192;28;21050;-80
2023/08/13 00:21:55;;;;;;;8.47;4.70;;;;;;;;;;5041043;28;20472;-80
2023/08/13 00:24:22;;;;;;;15.90;5.30;;;;;;;;;;5039347;28;20479;-80
2023/08/13 00:26:49;;;;;;;13.50;5.67;;;;;;;;;;5040825;28;20445;-80
2023/08/13 00:29:16;;;;;;;11.37;5.17;;;;;;;;;;5042302;28;20475;-80
2023/08/13 00:31:43;;;;;;;14.93;5.13;;;;;;;;;;5040706;28;20853;-80
2023/08/13 00:34:09;;;;;;;9.37;5.03;;;;;;;;;;5042281;28;20455;-80
2023/08/13 00:36:35;;;;;;;9.63;4.73;;;;;;;;;;5041090;28;20452;-80
2023/08/13 00:39:03;;;;;;;12.17;5.43;;;;;;;;;;5041399;28;20470;-80
2023/08/13 00:41:29;;;;;;;13.53;5.60;;;;;;;;;;5050476;28;20514;-80
2023/08/13 00:43:56;;;;;;;13.17;4.90;;;;;;;;;;5044523;28;20467;-80
2023/08/13 00:46:24;;;;;;;11.33;5.20;;;;;;;;;;5042850;28;20977;-80
2023/08/13 00:48:59;;;;;;;18.80;5.00;;;;;;;;;;5044620;28;20472;-80
2023/08/13 00:51:24;;;;;;;7.40;4.77;;;;;;;;;;5046392;28;20451;-80
2023/08/13 00:53:51;;;;;;;9.37;5.23;;;;;;;;;;5046301;28;20464;-80
2023/08/13 00:56:19;;;;;;;6.27;4.43;;;;;;;;;;5045799;28;20202;-80
2023/08/13 00:58:47;;;;;;;12.87;5.97;;;;;;;;;;5044313;28;20447;-80
2023/08/13 01:01:13;;;;;;;8.00;4.57;;;;;;;;;;5043495;28;20480;-80
2023/08/13 01:03:41;;;;;;;12.73;5.47;;;;;;;;;;5049015;28;20469;-81
2023/08/13 01:06:12;;;;;;;14.30;5.33;;;;;;;;;;5047051;28;21068;-80
2023/08/13 01:08:42;;;;;;;12.93;4.87;;;;;;;;;;5043334;28;20439;-80
2023/08/13 01:11:15;;;;;;;11.03;4.57;;;;;;;;;;5041726;28;20486;-80
2023/08/13 01:13:44;;;;;;;13.27;5.63;;;;;;;;;;5043521;28;20468;-80
2023/08/13 01:16:11;;;;;;;12.23;5.37;;;;;;;;;;5043952;28;20838;-80
2023/08/13 01:18:39;;;;;;;13.73;6.00;;;;;;;;;;5044881;28;20480;-80
2023/08/13 01:21:07;;;;;;;9.80;5.50;;;;;;;;;;5047092;28;20483;-80
2023/08/13 01:23:35;;;;;;;13.67;4.93;;;;;;;;;;5042622;28;20481;-80
2023/08/13 01:26:04;;;;;;;11.63;5.57;;;;;;;;;;5040131;28;20925;-80
2023/08/13 01:28:34;;;;;;;16.10;6.60;;;;;;;;;;5040362;28;20480;-80
2023/08/13 01:31:06;;;;;;;11.27;5.60;;;;;;;;;;5045493;28;20873;-80
2023/08/13 01:33:35;;;;;;;10.63;5.80;;;;;;;;;;5041555;28;20547;-81
2023/08/13 01:36:02;;;;;;;11.20;6.30;;;;;;;;;;5041746;28;20445;-80
2023/08/13 01:38:30;;;;;;;10.77;5.40;;;;;;;;;;5041608;28;20468;-80
2023/08/13 01:41:00;;;;;;;11.70;6.20;;;;;;;;;;5042776;28;20509;-80
2023/08/13 01:43:27;;;;;;;11.43;6.33;;;;;;;;;;5044659;28;20546;-80
2023/08/13 01:45:53;;;;;;;12.63;5.70;;;;;;;;;;5046332;28;20821;-80
2023/08/13 01:48:19;;;;;;;9.83;5.80;;;;;;;;;;5042269;28;20493;-80
2023/08/13 01:50:46;;;;;;;11.17;5.77;;;;;;;;;;5043751;28;20442;-80
2023/08/13 01:53:12;;;;;;;14.77;6.17;;;;;;;;;;5046127;28;20468;-80
2023/08/13 01:55:39;;;;;;;14.13;5.87;;;;;;;;;;5042373;28;20456;-80
2023/08/13 01:58:07;;;;;;;14.33;6.27;;;;;;;;;;5044287;28;20849;-80
2023/08/13 02:00:34;;;;;;;8.20;5.83;;;;;;;;;;5045902;28;20505;-79
2023/08/13 02:03:00;;;;;;;12.07;5.57;;;;;;;;;;5044416;28;20826;-79
2023/08/13 02:05:26;;;;;;;13.20;5.77;;;;;;;;;;5042771;28;20416;-80
2023/08/13 02:07:53;;;;;;;9.33;6.47;;;;;;;;;;5044363;28;20444;-80
2023/08/13 02:10:19;;;;;;;12.53;6.20;;;;;;;;;;5044615;28;20480;-80
2023/08/13 02:12:45;;;;;;;7.20;5.57;;;;;;;;;;5044769;28;20482;-80
2023/08/13 02:15:15;;;;;;;12.10;6.23;;;;;;;;;;5041377;28;20468;-80
2023/08/13 02:17:41;;;;;;;12.30;6.30;;;;;;;;;;5042660;28;20441;-80
2023/08/13 02:20:10;;;;;;;12.60;7.00;;;;;;;;;;5042753;28;21021;-80
2023/08/13 02:22:36;;;;;;;10.23;6.40;;;;;;;;;;5044482;28;20461;-80
2023/08/13 02:25:03;;;;;;;12.50;5.83;;;;;;;;;;5041675;28;20494;-80
2023/08/13 02:27:29;;;;;;;12.27;6.33;;;;;;;;;;5043559;28;20826;-80
2023/08/13 02:29:55;;;;;;;20.70;6.10;;;;;;;;;;5042142;28;20465;-80
2023/08/13 02:32:24;;;;;;;18.10;8.07;;;;;;;;;;5044909;28;20469;-80
2023/08/13 02:34:50;;;;;;;16.30;5.87;;;;;;;;;;5041649;28;20479;-80
2023/08/13 02:37:16;;;;;;;10.00;6.20;;;;;;;;;;5046981;28;20475;-80
2023/08/13 02:39:43;;;;;;;12.07;7.33;;;;;;;;;;5042096;28;20985;-80
2023/08/13 02:42:09;;;;;;;13.10;7.23;;;;;;;;;;5045179;28;20878;-80
2023/08/13 02:44:35;;;;;;;13.63;7.17;;;;;;;;;;5041569;28;20467;-80
2023/08/13 02:47:01;;;;;;;8.63;5.87;;;;;;;;;;5041341;28;20445;-80
2023/08/13 02:49:29;;;;;;;14.53;6.40;;;;;;;;;;5042958;28;20488;-80
2023/08/13 02:51:56;;;;;;;8.90;6.13;;;;;;;;;;5043101;28;20463;-80
2023/08/13 02:54:23;;;;;;;10.33;6.80;;;;;;;;;;5040359;28;20864;-80
2023/08/13 02:56:49;;;;;;;8.37;5.80;;;;;;;;;;5043332;28;20452;-80
2023/08/13 02:59:16;;;;;;;12.37;6.33;;;;;;;;;;5039625;28;20467;-80
2023/08/13 03:01:44;;;;;;;8.20;6.00;;;;;;;;;;5041848;28;20495;-80
2023/08/13 03:04:12;;;;;;;9.73;7.00;;;;;;;;;;5042938;28;20475;-80
2023/08/13 03:06:40;;;;;;;17.53;6.47;;;;;;;;;;5042133;28;20443;-80
2023/08/13 03:09:06;;;;;;;12.30;7.00;;;;;;;;;;5043629;28;20477;-80
2023/08/13 03:11:33;;;;;;;11.43;6.13;;;;;;;;;;5040680;28;20447;-80
2023/08/13 03:13:59;;;;;;;13.20;5.90;;;;;;;;;;5042461;28;20838;-80
2023/08/13 03:16:27;;;;;;;12.37;6.60;;;;;;;;;;5044566;28;20506;-80
2023/08/13 03:18:54;;;;;;;18.23;6.90;;;;;;;;;;5043415;28;20505;-79
2023/08/13 03:21:22;;;;;;;10.60;6.10;;;;;;;;;;5039092;28;20869;-80
2023/08/13 03:23:50;;;;;;;13.43;7.40;;;;;;;;;;5045191;28;20472;-80
2023/08/13 03:26:16;;;;;;;13.70;6.30;;;;;;;;;;5041830;28;20447;-80
2023/08/13 03:28:42;;;;;;;9.80;6.03;;;;;;;;;;5042996;28;20480;-80
2023/08/13 03:31:09;;;;;;;14.43;6.30;;;;;;;;;;5043797;28;20536;-80
2023/08/13 03:33:35;;;;;;;12.87;6.67;;;;;;;;;;5041518;28;20486;-80
2023/08/13 03:36:02;;;;;;;13.50;8.03;;;;;;;;;;5039937;28;20981;-79
2023/08/13 03:38:29;;;;;;;11.40;7.23;;;;;;;;;;5040530;28;21014;-80
2023/08/13 03:40:57;;;;;;;15.83;7.37;;;;;;;;;;5044191;28;20485;-80
2023/08/13 03:43:24;;;;;;;14.50;7.60;;;;;;;;;;5043913;28;20997;-80
2023/08/13 03:45:50;;;;;;;12.37;6.53;;;;;;;;;;5042177;28;20436;-80
2023/08/13 03:48:16;;;;;;;18.77;7.23;;;;;;;;;;5043754;28;20464;-80
2023/08/13 03:50:43;;;;;;;12.37;7.57;;;;;;;;;;5040209;28;20440;-80
2023/08/13 03:53:09;;;;;;;16.17;7.73;;;;;;;;;;5039000;28;20491;-79
2023/08/13 03:55:36;;;;;;;13.50;7.70;;;;;;;;;;5040124;28;20440;-80
2023/08/13 03:58:04;;;;;;;15.90;7.87;;;;;;;;;;5043014;28;20451;-80
2023/08/13 04:00:31;;;;;;;12.70;6.80;;;;;;;;;;5041333;28;20787;-79
2023/08/13 04:02:57;;;;;;;13.77;8.30;;;;;;;;;;5041667;28;20491;-80
2023/08/13 04:05:24;;;;;;;12.80;7.67;;;;;;;;;;5045245;28;20447;-80
2023/08/13 04:07:50;;;;;;;12.73;8.83;;;;;;;;;;5042783;28;20448;-80
2023/08/13 04:10:17;;;;;;;14.13;7.87;;;;;;;;;;5042898;28;20481;-80
2023/08/13 04:12:43;;;;;;;12.60;8.17;;;;;;;;;;5044958;28;20465;-80
2023/08/13 04:15:11;;;;;;;13.10;8.43;;;;;;;;;;5044680;28;21065;-79
2023/08/13 04:17:37;;;;;;;22.10;7.10;;;;;;;;;;5050203;28;20458;-80
2023/08/13 04:20:05;;;;;;;16.87;7.67;;;;;;;;;;5047024;28;20446;-80
2023/08/13 04:22:32;;;;;;;16.83;8.33;;;;;;;;;;5042350;28;20578;-80
2023/08/13 04:24:58;;;;;;;10.63;7.30;;;;;;;;;;5046717;28;20480;-80
2023/08/13 04:27:25;;;;;;;14.60;8.10;;;;;;;;;;5042383;28;20449;-80
2023/08/13 04:29:51;;;;;;;13.50;8.17;;;;;;;;;;5044930;28;20473;-80
2023/08/13 04:32:19;;;;;;;15.73;8.17;;;;;;;;;;5047637;28;20476;-80
2023/08/13 04:34:46;;;;;;;10.93;7.23;;;;;;;;;;5044045;28;21036;-79
2023/08/13 04:37:12;;;;;;;14.97;7.40;;;;;;;;;;5045945;28;20452;-80
2023/08/13 04:39:38;;;;;;;17.43;7.37;;;;;;;;;;5043448;28;20471;-79
2023/08/13 04:42:05;;;;;;;16.23;7.67;;;;;;;;;;5045087;28;20550;-79
2023/08/13 04:44:31;;;;;;;10.73;7.13;;;;;;;;;;5045697;28;20463;-80
2023/08/13 04:46:58;;;;;;;9.93;6.63;;;;;;;;;;5047410;28;20988;-80
2023/08/13 04:49:26;;;;;;;13.90;8.00;;;;;;;;;;5045840;28;20484;-80
2023/08/13 04:51:52;;;;;;;15.73;7.83;;;;;;;;;;5042459;28;20464;-80
2023/08/13 04:54:18;;;;;;;12.73;7.50;;;;;;;;;;5044444;28;20471;-80
2023/08/13 04:56:45;;;;;;;13.63;7.17;;;;;;;;;;5045740;28;20439;-80
2023/08/13 04:59:13;;;;;;;16.03;7.80;;;;;;;;;;5042936;28;20475;-80
2023/08/13 05:01:40;;;;;;;13.70;7.70;;;;;;;;;;5046259;28;20488;-79
2023/08/13 05:04:06;;;;;;;15.40;9.00;;;;;;;;;;5044608;28;20480;-80
2023/08/13 05:06:34;;;;;;;12.10;7.07;;;;;;;;;;5043115;28;20445;-80
2023/08/13 05:09:00;;;;;;;13.70;8.63;;;;;;;;;;5042369;28;21012;-80
2023/08/13 05:11:26;;;;;;;13.13;8.23;;;;;;;;;;5043031;28;20946;-80
2023/08/13 05:13:53;;;;;;;12.63;7.87;;;;;;;;;;5046975;28;20839;-80
2023/08/13 05:16:19;;;;;;;15.63;8.93;;;;;;;;;;5046148;28;20467;-80
2023/08/13 05:18:45;;;;;;;10.90;6.70;;;;;;;;;;5042940;28;20490;-80
2023/08/13 05:21:12;;;;;;;16.50;8.27;;;;;;;;;;5045058;28;20459;-80
2023/08/13 05:23:39;;;;;;;18.73;8.30;;;;;;;;;;5044247;28;20481;-80
2023/08/13 05:26:06;;;;;;;12.70;7.37;;;;;;;;;;5044065;28;20441;-80
2023/08/13 05:28:33;;;;;;;14.93;7.80;;;;;;;;;;5046530;28;20551;-80
2023/08/13 05:31:02;;;;;;;10.63;6.87;;;;;;;;;;5045245;28;20519;-80
2023/08/13 05:33:28;;;;;;;17.70;8.70;;;;;;;;;;5044114;28;20529;-80
2023/08/13 05:35:55;;;;;;;12.03;7.17;;;;;;;;;;5041505;28;20448;-80
2023/08/13 05:38:22;;;;;;;19.67;7.97;;;;;;;;;;5045535;28;20465;-80
2023/08/13 05:40:49;;;;;;;21.60;8.17;;;;;;;;;;5047018;28;20475;-80
2023/08/13 05:43:16;;;;;;;13.00;8.17;;;;;;;;;;5042571;28;20484;-80
2023/08/13 05:45:42;;;;;;;17.87;7.30;;;;;;;;;;5042571;28;20502;-80
2023/08/13 05:48:09;;;;;;;14.63;7.57;;;;;;;;;;5040508;28;20866;-80
2023/08/13 05:50:35;;;;;;;13.47;7.40;;;;;;;;;;5043359;28;20453;-79
2023/08/13 05:53:02;;;;;;;22.60;7.50;;;;;;;;;;5046147;28;20460;-80
2023/08/13 05:55:28;;;;;;;19.20;7.10;;;;;;;;;;5043110;28;20456;-80
2023/08/13 05:57:57;;;;;;;16.30;6.60;;;;;;;;;;5044112;28;20464;-80
2023/08/13 06:00:27;;;;;;;15.07;6.50;;;;;;;;;;5042868;28;20468;-79
2023/08/13 06:02:54;;;;;;;12.60;6.60;;;;;;;;;;5044450;28;20517;-80
2023/08/13 06:05:20;;;;;;;12.20;7.20;;;;;;;;;;5040778;28;20917;-80
2023/08/13 06:07:46;;;;;;;20.13;7.97;;;;;;;;;;5044985;28;20459;-80
2023/08/13 06:10:13;;;;;;;13.23;6.87;;;;;;;;;;5043013;28;20487;-80
2023/08/13 06:12:39;;;;;;;11.90;7.37;;;;;;;;;;5047483;28;20452;-79
2023/08/13 06:15:09;;;;;;;13.37;6.07;;;;;;;;;;5045278;28;20465;-80
2023/08/13 06:17:36;;;;;;;15.33;6.87;;;;;;;;;;5044504;28;20547;-80
2023/08/13 06:20:03;;;;;;;9.27;5.50;;;;;;;;;;5042752;28;21007;-80
2023/08/13 06:22:29;;;;;;;10.80;5.63;;;;;;;;;;5042927;28;20500;-79
2023/08/13 06:24:56;;;;;;;12.70;6.37;;;;;;;;;;5044263;28;20460;-80
2023/08/13 06:27:22;;;;;;;13.73;6.47;;;;;;;;;;5042412;28;20448;-80
2023/08/13 06:29:48;;;;;;;12.70;6.30;;;;;;;;;;5044423;28;20513;-80
2023/08/13 06:32:16;;;;;;;12.97;7.00;;;;;;;;;;5042490;28;20503;-80
2023/08/13 06:34:42;;;;;;;13.77;6.70;;;;;;;;;;5043816;28;21047;-80
2023/08/13 06:37:09;;;;;;;10.97;6.50;;;;;;;;;;5045914;28;20487;-79
2023/08/13 06:39:35;;;;;;;12.17;5.90;;;;;;;;;;5043903;28;20476;-80
2023/08/13 06:42:02;;;;;;;16.70;6.53;;;;;;;;;;5041180;28;20498;-79
2023/08/13 06:44:28;;;;;;;8.63;6.00;;;;;;;;;;5048254;28;20475;-80
2023/08/13 06:46:56;;;;;;;12.40;6.00;;;;;;;;;;5041635;28;20449;-80
2023/08/13 06:49:23;;;;;;;10.63;6.27;;;;;;;;;;5042659;28;20966;-79
2023/08/13 06:51:50;;;;;;;13.17;5.70;;;;;;;;;;5042274;28;20460;-79
2023/08/13 06:54:16;;;;;;;18.80;5.40;;;;;;;;;;5043626;28;20479;-80
2023/08/13 06:56:42;;;;;;;15.80;5.67;;;;;;;;;;5044455;28;20444;-80
2023/08/13 06:59:09;;;;;;;11.33;5.60;;;;;;;;;;5044921;28;20469;-80
2023/08/13 07:01:35;;;;;;;8.33;4.70;;;;;;;;;;5046476;28;20456;-80
2023/08/13 07:04:02;;;;;;;10.80;4.77;;;;;;;;;;5045047;28;20480;-80
2023/08/13 07:06:31;;;;;;;11.00;5.20;;;;;;;;;;5047437;28;20456;-80
2023/08/13 07:08:57;;;;;;;12.17;5.60;;;;;;;;;;5038994;28;20463;-80
2023/08/13 07:11:24;;;;;;;11.90;5.37;;;;;;;;;;5045573;28;20448;-80
2023/08/13 07:13:51;;;;;;;8.83;4.40;;;;;;;;;;5039882;28;20473;-79
2023/08/13 07:16:17;;;;;;;13.53;5.53;;;;;;;;;;5043858;28;20463;-81
2023/08/13 07:18:43;;;;;;;11.00;5.30;;;;;;;;;;5044996;28;20853;-80
2023/08/13 07:21:11;;;;;;;8.03;4.47;;;;;;;;;;5042246;28;20828;-80
2023/08/13 07:23:39;;;;;;;13.30;5.90;;;;;;;;;;5041081;28;20472;-80
2023/08/13 07:26:05;;;;;;;10.40;5.73;;;;;;;;;;5045383;28;20444;-80
2023/08/13 07:28:34;;;;;;;8.83;4.23;;;;;;;;;;5037251;28;20517;-80
2023/08/13 07:31:03;;;;;;;11.77;5.13;;;;;;;;;;5045084;28;20479;-80
2023/08/13 07:33:29;;;;;;;11.27;5.50;;;;;;;;;;5039962;28;20554;-80
2023/08/13 07:35:56;;;;;;;10.50;5.80;;;;;;;;;;5044051;28;20459;-79
2023/08/13 07:38:22;;;;;;;18.47;5.60;;;;;;;;;;5041432;28;20472;-80
2023/08/13 07:40:50;;;;;;;9.97;5.40;;;;;;;;;;5044785;28;20462;-80
2023/08/13 07:43:16;;;;;;;11.50;6.20;;;;;;;;;;5043125;28;20468;-80
2023/08/13 07:45:43;;;;;;;8.33;5.83;;;;;;;;;;5046749;28;20479;-80
2023/08/13 07:48:10;;;;;;;12.00;6.20;;;;;;;;;;5042999;28;20467;-80
2023/08/13 07:50:36;;;;;;;10.00;4.80;;;;;;;;;;5047707;28;20450;-80
2023/08/13 07:53:04;;;;;;;12.23;4.80;;;;;;;;;;5047164;28;20725;-80
2023/08/13 07:55:30;;;;;;;11.10;4.93;;;;;;;;;;5047112;28;20522;-80
2023/08/13 07:57:58;;;;;;;9.23;6.13;;;;;;;;;;5045999;28;20464;-81
2023/08/13 08:00:26;;;;;;;12.40;5.63;;;;;;;;;;5047402;28;20447;-80
2023/08/13 08:02:53;;;;;;;10.40;5.10;;;;;;;;;;5047416;28;20869;-80
2023/08/13 08:05:22;;;;;;;8.83;5.70;;;;;;;;;;5043404;28;20457;-80
2023/08/13 08:07:48;;;;;;;8.63;5.10;;;;;;;;;;5045710;28;20456;-80
2023/08/13 08:10:14;;;;;;;11.67;4.67;;;;;;;;;;5045190;28;20486;-80
2023/08/13 08:12:41;;;;;;;10.23;5.20;;;;;;;;;;5046363;28;20470;-80
2023/08/13 08:15:10;;;;;;;11.80;4.77;;;;;;;;;;5045186;28;20463;-80
2023/08/13 08:17:37;;;;;;;8.90;5.30;;;;;;;;;;5045555;28;20443;-80
2023/08/13 08:20:04;;;;;;;17.57;6.00;;;;;;;;;;5050250;28;20468;-80
2023/08/13 08:22:32;;;;;;;10.30;4.80;;;;;;;;;;5047943;28;20576;-80
2023/08/13 08:24:58;;;;;;;10.17;4.30;;;;;;;;;;5045034;28;20527;-80
2023/08/13 08:27:27;;;;;;;12.00;4.97;;;;;;;;;;5048192;28;20455;-80
2023/08/13 08:29:53;;;;;;;5.50;4.10;;;;;;;;;;5046060;28;20463;-80
2023/08/13 08:32:21;;;;;;;9.37;4.90;;;;;;;;;;5047446;28;20472;-80
2023/08/13 08:34:47;;;;;;;14.13;4.50;;;;;;;;;;5046890;28;21012;-80
2023/08/13 08:37:14;;;;;;;7.17;3.87;;;;;;;;;;5049602;28;20809;-80
2023/08/13 08:39:41;;;;;;;9.57;5.07;;;;;;;;;;5046019;28;20475;-80
2023/08/13 08:42:09;;;;;;;11.23;3.70;;;;;;;;;;5046331;28;20547;-80
2023/08/13 08:44:38;;;;;;;9.00;4.57;;;;;;;;;;5043272;28;20455;-80
2023/08/13 08:47:06;;;;;;;10.30;4.17;;;;;;;;;;5044503;28;20830;-80
2023/08/13 08:49:36;;;;;;;5.93;3.93;;;;;;;;;;5043769;28;21002;-80
2023/08/13 08:52:03;;;;;;;6.83;3.70;;;;;;;;;;5042033;28;20465;-80
2023/08/13 08:54:29;;;;;;;8.77;3.70;;;;;;;;;;5048973;28;20471;-80
2023/08/13 08:56:55;;;;;;;6.77;3.50;;;;;;;;;;5049984;28;20962;-80
2023/08/13 08:59:22;;;;;;;9.80;4.37;;;;;;;;;;5046677;28;20469;-80
2023/08/13 09:01:48;;;;;;;8.40;3.77;;;;;;;;;;5044454;28;20467;-80
2023/08/13 09:04:15;;;;;;;6.97;4.00;;;;;;;;;;5048388;28;20857;-80
2023/08/13 09:06:53;;;;;;;8.03;3.37;;;;;;;;;;5045326;28;20456;-81
2023/08/13 09:09:20;;;;;;;7.83;3.60;;;;;;;;;;5043002;28;20479;-80
2023/08/13 09:11:46;;;;;;;6.30;3.53;;;;;;;;;;5040810;28;20457;-80
2023/08/13 09:14:14;;;;;;;6.57;3.23;;;;;;;;;;5043090;28;20468;-80
2023/08/13 09:16:44;;;;;;;8.93;3.80;;;;;;;;;;5045075;28;20464;-80
2023/08/13 09:19:11;;;;;;;4.80;3.00;;;;;;;;;;5044074;28;20471;-80
2023/08/13 09:21:38;;;;;;;7.10;2.93;;;;;;;;;;5044360;28;20440;-80
2023/08/13 09:24:08;;;;;;;10.20;3.50;;;;;;;;;;5044501;28;20476;-80
2023/08/13 09:26:35;;;;;;;9.30;3.40;;;;;;;;;;5041274;28;20968;-80
2023/08/13 09:29:01;;;;;;;9.10;3.70;;;;;;;;;;5044220;28;20475;-80
2023/08/13 09:31:27;;;;;;;4.30;2.70;;;;;;;;;;5044777;28;20845;-80
2023/08/13 09:33:53;;;;;;;8.50;3.07;;;;;;;;;;5042820;28;21006;-80
2023/08/13 09:36:20;;;;;;;3.53;2.40;;;;;;;;;;5045144;28;20439;-80
2023/08/13 09:38:46;;;;;;;9.73;3.40;;;;;;;;;;5042926;28;20476;-80
2023/08/13 09:41:14;;;;;;;5.23;3.37;;;;;;;;;;5047031;28;20819;-80
2023/08/13 09:43:42;;;;;;;5.23;2.97;;;;;;;;;;5042096;28;20475;-80
2023/08/13 09:46:11;;;;;;;6.80;2.97;;;;;;;;;;5043826;28;20463;-80
2023/08/13 09:48:39;;;;;;;6.33;3.40;;;;;;;;;;5044547;28;20467;-80
2023/08/13 09:51:06;;;;;;;7.70;2.67;;;;;;;;;;5042834;28;20445;-80
2023/08/13 09:53:34;;;;;;;7.03;2.30;;;;;;;;;;5042979;28;20869;-81
2023/08/13 09:56:02;;;;;;;5.13;2.17;;;;;;;;;;5044507;28;20444;-81
2023/08/13 09:58:30;;;;;;;5.27;2.63;;;;;;;;;;5043020;28;20487;-80
2023/08/13 10:00:56;;;;;;;5.17;2.87;;;;;;;;;;5046096;28;20451;-80
2023/08/13 10:03:23;;;;;;;5.53;2.80;;;;;;;;;;5048182;28;20505;-80
2023/08/13 10:05:50;;;;;;;6.27;3.20;;;;;;;;;;5046076;28;20437;-80
2023/08/13 10:08:17;;;;;;;6.97;3.00;;;;;;;;;;5041032;28;20460;-81
2023/08/13 10:10:43;;;;;;;5.33;2.40;;;;;;;;;;5040709;28;20444;-80
2023/08/13 10:13:10;;;;;;;13.73;2.90;;;;;;;;;;5040088;28;20958;-81
2023/08/13 10:15:39;;;;;;;3.40;2.10;;;;;;;;;;5039216;28;20467;-80
2023/08/13 10:18:05;;;;;;;6.10;2.30;;;;;;;;;;5042768;28;20443;-81
2023/08/13 10:20:32;;;;;;;5.73;2.50;;;;;;;;;;5048657;28;20435;-81
2023/08/13 10:23:07;;;;;;;3.73;3.30;;;;;;;;;;5042925;28;20907;-81
2023/08/13 10:25:34;;;;;;;3.73;2.30;;;;;;;;;;5042151;28;20925;-81
2023/08/13 10:28:19;;;;;;;9.37;2.20;;;;;;;;;;5042855;28;20483;-80
2023/08/13 10:30:48;;;;;;;6.17;2.37;;;;;;;;;;5040795;28;20432;-81
2023/08/13 10:33:14;;;;;;;4.80;2.20;;;;;;;;;;5042226;28;20467;-80
2023/08/13 10:35:42;;;;;;;6.50;1.83;;;;;;;;;;5044583;28;20451;-80
2023/08/13 10:38:08;;;;;;;5.47;2.03;;;;;;;;;;5044175;28;20476;-81
2023/08/13 10:40:35;;;;;;;3.27;1.77;;;;;;;;;;5044237;28;20440;-80
2023/08/13 10:43:02;;;;;;;5.50;2.33;;;;;;;;;;5042284;28;20467;-80
2023/08/13 10:45:32;;;;;;;5.23;1.77;;;;;;;;;;5045157;28;20463;-80
2023/08/13 10:48:03;;;;;;;4.53;1.80;;;;;;;;;;5044410;28;20538;-81
2023/08/13 10:50:30;;;;;;;5.77;1.90;;;;;;;;;;5042492;28;20460;-81
2023/08/13 10:53:02;;;;;;;3.63;1.70;;;;;;;;;;5044312;28;20484;-80
2023/08/13 10:55:29;;;;;;;3.50;1.70;;;;;;;;;;5043377;28;20507;-80
2023/08/13 10:57:57;;;;;;;4.03;1.87;;;;;;;;;;5042179;28;20543;-82
2023/08/13 11:00:24;;;;;;;9.83;2.80;;;;;;;;;;5044091;28;20448;-80
2023/08/13 11:02:53;;;;;;;2.87;1.37;;;;;;;;;;5044898;28;20500;-80
2023/08/13 11:05:22;;;;;;;4.43;2.30;;;;;;;;;;5043750;28;20452;-80
2023/08/13 11:07:48;;;;;;;4.60;1.73;;;;;;;;;;5043734;28;21029;-81
2023/08/13 11:10:18;;;;;;;5.03;2.00;;;;;;;;;;5042990;28;20468;-81
2023/08/13 11:12:45;;;;;;;3.60;1.50;;;;;;;;;;5044029;28;20541;-80
2023/08/13 11:15:12;;;;;;;3.00;1.97;;;;;;;;;;5043497;28;20548;-80
2023/08/13 11:17:39;;;;;;;2.20;1.87;;;;;;;;;;5041425;28;20444;-81
2023/08/13 11:20:07;;;;;;;5.20;1.57;;;;;;;;;;5041524;28;20468;-81
2023/08/13 11:22:35;;;;;;;4.77;2.10;;;;;;;;;;5041183;28;20570;-81
2023/08/13 11:25:01;;;;;;;8.47;1.67;;;;;;;;;;5042973;28;20526;-81
2023/08/13 11:27:29;;;;;;;1.70;1.30;;;;;;;;;;5043256;28;20513;-80
2023/08/13 11:29:55;;;;;;;3.00;1.47;;;;;;;;;;5040001;28;20483;-80
2023/08/13 11:32:23;;;;;;;2.90;1.80;;;;;;;;;;5042168;28;20470;-80
2023/08/13 11:34:49;;;;;;;3.20;1.30;;;;;;;;;;5043468;28;20468;-81
2023/08/13 11:37:16;;;;;;;3.47;1.67;;;;;;;;;;5041727;28;20451;-81
2023/08/13 11:39:43;;;;;;;4.63;2.03;;;;;;;;;;5043025;28;20548;-80
2023/08/13 11:42:10;;;;;;;4.60;2.37;;;;;;;;;;5046064;28;21009;-81
2023/08/13 11:44:37;;;;;;;5.90;1.63;;;;;;;;;;5042973;28;20472;-81
2023/08/13 11:47:04;;;;;;;2.23;1.60;;;;;;;;;;5041971;28;20451;-81
2023/08/13 11:49:31;;;;;;;4.73;2.07;;;;;;;;;;5044704;28;20503;-81
2023/08/13 11:51:58;;;;;;;5.30;1.90;;;;;;;;;;5040870;28;20464;-81
2023/08/13 11:54:25;;;;;;;2.57;1.30;;;;;;;;;;5043198;28;20468;-81
2023/08/13 11:56:55;;;;;;;1.70;1.60;;;;;;;;;;5041859;28;20448;-81
2023/08/13 11:59:22;;;;;;;4.87;1.53;;;;;;;;;;5042625;28;20476;-80
2023/08/13 12:01:50;;;;;;;6.33;2.07;;;;;;;;;;5038843;28;20475;-81
2023/08/13 12:04:19;;;;;;;2.93;1.20;;;;;;;;;;5042778;28;20474;-80
2023/08/13 12:06:46;;;;;;;2.30;1.30;;;;;;;;;;5041690;28;20440;-80
2023/08/13 12:09:13;;;;;;;4.53;1.87;;;;;;;;;;5041387;28;20471;-81
2023/08/13 12:11:39;;;;;;;7.20;2.73;;;;;;;;;;5042369;28;20468;-80
2023/08/13 12:14:07;;;;;;;1.73;1.47;;;;;;;;;;5042251;28;20473;-81
2023/08/13 12:16:34;;;;;;;3.53;1.40;;;;;;;;;;5042538;28;20483;-81
2023/08/13 12:19:01;;;;;;;3.53;1.50;;;;;;;;;;5042825;28;20979;-81
2023/08/13 12:21:28;;;;;;;3.30;1.50;;;;;;;;;;5038702;28;20453;-81
2023/08/13 12:23:54;;;;;;;5.17;1.83;;;;;;;;;;5042365;28;20476;-81
2023/08/13 12:26:22;;;;;;;3.30;1.47;;;;;;;;;;5041948;28;20525;-81
2023/08/13 12:28:50;;;;;;;2.47;1.57;;;;;;;;;;5041832;28;20467;-81
2023/08/13 12:31:18;;;;;;;4.57;1.50;;;;;;;;;;5045018;28;21005;-81
2023/08/13 12:33:45;;;;;;;3.77;1.50;;;;;;;;;;5040736;28;21017;-82
2023/08/13 12:36:11;;;;;;;3.10;1.30;;;;;;;;;;5044784;28;20445;-81
2023/08/13 12:38:39;;;;;;;3.00;1.50;;;;;;;;;;5042907;28;21006;-81
2023/08/13 12:41:05;;;;;;;5.53;1.40;;;;;;;;;;5046811;28;20440;-81
2023/08/13 12:43:33;;;;;;;2.10;0.90;;;;;;;;;;5043908;28;20473;-81
2023/08/13 12:45:59;;;;;;;2.50;1.30;;;;;;;;;;5048893;28;20444;-81
2023/08/13 12:48:27;;;;;;;3.43;1.30;;;;;;;;;;5047177;28;20499;-81
2023/08/13 12:50:53;;;;;;;2.80;1.30;;;;;;;;;;5046067;28;20440;-81
2023/08/13 12:53:20;;;;;;;3.07;1.40;;;;;;;;;;5047402;28;21448;-81
2023/08/13 12:55:47;;;;;;;2.80;1.67;;;;;;;;;;5046161;28;20531;-81
2023/08/13 12:58:13;;;;;;;3.30;1.20;;;;;;;;;;5047123;28;20957;-81
2023/08/13 13:00:40;;;;;;;5.23;1.50;;;;;;;;;;5043911;28;20441;-81
2023/08/13 13:03:06;;;;;;;4.00;1.07;;;;;;;;;;5042033;28;20477;-81
2023/08/13 13:05:34;;;;;;;2.80;1.00;;;;;;;;;;5048701;28;20483;-81
2023/08/13 13:08:00;;;;;;;2.00;1.20;;;;;;;;;;5044147;28;20448;-82
2023/08/13 13:10:26;;;;;;;2.60;1.90;;;;;;;;;;5048174;28;20447;-81
2023/08/13 13:12:53;;;;;;;3.87;1.47;;;;;;;;;;5048151;28;20472;-81
2023/08/13 13:15:20;;;;;;;3.70;1.00;;;;;;;;;;5043753;28;20862;-81
2023/08/13 13:17:46;;;;;;;2.20;1.10;;;;;;;;;;5043861;28;20461;-81
2023/08/13 13:20:13;;;;;;;1.43;1.03;;;;;;;;;;5043425;28;20467;-81
2023/08/13 13:22:41;;;;;;;1.93;0.73;;;;;;;;;;5045893;28;20499;-81
2023/08/13 13:25:08;;;;;;;1.93;1.27;;;;;;;;;;5045541;28;20471;-81
2023/08/13 13:27:35;;;;;;;1.63;1.00;;;;;;;;;;5047793;28;20469;-81
2023/08/13 13:30:05;;;;;;;3.53;1.20;;;;;;;;;;5047884;28;20467;-81
2023/08/13 13:32:32;;;;;;;1.67;1.57;;;;;;;;;;5045911;28;20475;-81
2023/08/13 13:34:58;;;;;;;2.63;1.40;;;;;;;;;;5041943;28;20469;-81
2023/08/13 13:37:24;;;;;;;2.20;1.03;;;;;;;;;;5045929;28;20450;-81
2023/08/13 13:39:52;;;;;;;2.83;1.17;;;;;;;;;;5044836;28;20487;-82
2023/08/13 13:42:18;;;;;;;5.43;1.40;;;;;;;;;;5047638;28;20468;-81
2023/08/13 13:44:44;;;;;;;1.13;1.00;;;;;;;;;;5046594;28;20487;-81
2023/08/13 13:47:11;;;;;;;2.80;1.10;;;;;;;;;;5046493;28;20448;-81
2023/08/13 13:49:37;;;;;;;1.40;1.00;;;;;;;;;;5048217;28;21048;-81
2023/08/13 13:52:04;;;;;;;3.20;1.10;;;;;;;;;;5043608;28;20835;-81
2023/08/13 13:54:31;;;;;;;2.30;1.37;;;;;;;;;;5045586;28;20461;-81
2023/08/13 13:56:58;;;;;;;6.87;2.23;;;;;;;;;;5046431;28;20458;-81
2023/08/13 13:59:25;;;;;;;3.50;1.43;;;;;;;;;;5045804;28;20471;-81
2023/08/13 14:01:51;;;;;;;2.30;1.30;;;;;;;;;;5043598;28;20464;-81
2023/08/13 14:04:19;;;;;;;1.63;1.40;;;;;;;;;;5042535;28;21006;-81
2023/08/13 14:06:45;;;;;;;1.57;1.13;;;;;;;;;;5044206;28;20435;-81
2023/08/13 14:09:11;;;;;;;2.77;1.27;;;;;;;;;;5041196;28;20483;-81
2023/08/13 14:11:38;;;;;;;3.77;1.73;;;;;;;;;;5042042;28;20558;-81
2023/08/13 14:14:07;;;;;;;3.30;1.50;;;;;;;;;;5040820;28;21014;-81
2023/08/13 14:16:33;;;;;;;2.50;1.53;;;;;;;;;;5038977;28;20941;-81
2023/08/13 14:18:59;;;;;;;3.63;1.20;;;;;;;;;;5044484;28;20484;-81
2023/08/13 14:21:26;;;;;;;3.90;1.37;;;;;;;;;;5044505;28;20445;-81
2023/08/13 14:23:52;;;;;;;1.70;1.30;;;;;;;;;;5042027;28;20858;-81
2023/08/13 14:26:18;;;;;;;2.20;1.37;;;;;;;;;;5044206;28;20487;-81
2023/08/13 14:28:45;;;;;;;1.93;1.30;;;;;;;;;;5041429;28;20472;-81
2023/08/13 14:31:12;;;;;;;3.00;2.10;;;;;;;;;;5044337;28;20444;-81
2023/08/13 14:33:39;;;;;;;1.80;1.20;;;;;;;;;;5041341;28;20481;-81
2023/08/13 14:36:05;;;;;;;3.00;1.30;;;;;;;;;;5046468;28;20448;-81